Airfield :
LOGIN :

Register | Disclaimer

   EN    FR    IT 

 










Legend :    VFR   Marginal VFR   IFR   Intensive IFR   Very Intensive IFR
Visi :
Ceiling :
>= 8 km
>= 3000ft
5 to 8 km
1000 to 3000 ft
1500m to 5 km
500 to 1000 ft
800 to 1500m
200 to 500 ft
< 800m
< 200 ft
Symbols :   Thunderstorms  Fog  Heavy snow  Heavy precipitations  Wind > 20 kt
SIGMETs :     Misc.  Thunderstorms  Icing  Turbulence  Mountain Waves  Volcanic Ashes







- Airport Elevation : 157 ft
- IATA code : LIL
- Download approach charts


LFQQ - Lille Lesquin

CURRENT METAR :
  • 220600Z AUTO 24007KT 9999 BKN011 BKN029 OVC038 10/09 Q1007 TEMPO OVC007

EXPIRED METARs :
  • 220530Z AUTO 24009KT 9999 BKN012 OVC030 10/09 Q1007 TEMPO OVC007
  • 220500Z AUTO 25008KT 9999 OVC011 10/09 Q1007 TEMPO 4000 RADZ OVC008
  • 220430Z AUTO 26009KT 9999 BKN012 OVC044 10/09 Q1007 TEMPO 4000 RADZ OVC008
  • 220400Z AUTO 24008KT 9999 BKN009 OVC045 10/09 Q1007 TEMPO 4000 RADZ
  • 220330Z AUTO 25011KT 9999 BKN009 OVC031 10/09 Q1007 TEMPO 4000 RADZ

TAF TAF LFQQ
Valid from the 22 at 06:00 until the 23 at 12:00 UTC


220500Z 2206/2312 25010KT 9999 BKN012
TEMPO 2206/2209 OVC007
BECMG 2209/2211 31006KT BKN040
BECMG 2303/2306 21010KT OVC013
BECMG 2308/2310 18015G25KT
TEMPO 2310/2312 3000 RA OVC007
ATIS : +33 3 20 16 19 54
No reported NOTAMs for that airfield.



MET'MAP, your aeronautical weather chart ! - Copyright ORBIFLY December 2007 - Disclaimer

ORBIFLY MET'MAP TEAM :

Programming & Development : Alexandra Zaïnal
Concept & Development : Baudouin d'Aumeries
Co-Development & Prog : Marc-Olivier Méhu
Technical & hardware support : Manuel Goepfert

Contact : metmap@orbifly.com




SOURCES & CREDITS :

   NOAA